sensor_id;sensor_type;location;lat;lon;timestamp;P1;durP1;ratioP1;P2;durP2;ratioP2
33491;SDS011;20010;51.488;7.232;2023-01-23T00:00:54;20.17;;;15.13;;
33491;SDS011;20010;51.488;7.232;2023-01-23T00:03:20;24.60;;;18.15;;
33491;SDS011;20010;51.488;7.232;2023-01-23T00:05:56;25.83;;;19.05;;
33491;SDS011;20010;51.488;7.232;2023-01-23T00:08:23;27.40;;;18.10;;
33491;SDS011;20010;51.488;7.232;2023-01-23T00:10:50;24.42;;;18.30;;
33491;SDS011;20010;51.488;7.232;2023-01-23T00:13:17;26.52;;;17.90;;
33491;SDS011;20010;51.488;7.232;2023-01-23T00:15:44;25.73;;;17.83;;
33491;SDS011;20010;51.488;7.232;2023-01-23T00:18:10;27.67;;;17.65;;
33491;SDS011;20010;51.488;7.232;2023-01-23T00:20:37;26.65;;;18.00;;
33491;SDS011;20010;51.488;7.232;2023-01-23T00:23:07;21.15;;;16.10;;
33491;SDS011;20010;51.488;7.232;2023-01-23T00:25:34;24.17;;;16.25;;
33491;SDS011;20010;51.488;7.232;2023-01-23T00:28:01;24.38;;;17.05;;
33491;SDS011;20010;51.488;7.232;2023-01-23T00:30:28;25.63;;;17.27;;
33491;SDS011;20010;51.488;7.232;2023-01-23T00:32:54;25.52;;;17.40;;
33491;SDS011;20010;51.488;7.232;2023-01-23T00:35:21;25.38;;;17.73;;
33491;SDS011;20010;51.488;7.232;2023-01-23T00:37:47;26.48;;;18.10;;
33491;SDS011;20010;51.488;7.232;2023-01-23T00:40:14;27.77;;;17.70;;
33491;SDS011;20010;51.488;7.232;2023-01-23T00:42:40;22.90;;;16.55;;
33491;SDS011;20010;51.488;7.232;2023-01-23T00:45:07;23.65;;;17.17;;
33491;SDS011;20010;51.488;7.232;2023-01-23T00:47:34;23.35;;;16.10;;
33491;SDS011;20010;51.488;7.232;2023-01-23T00:50:00;23.15;;;16.08;;
33491;SDS011;20010;51.488;7.232;2023-01-23T00:52:27;24.10;;;17.02;;
33491;SDS011;20010;51.488;7.232;2023-01-23T00:54:54;25.02;;;18.13;;
33491;SDS011;20010;51.488;7.232;2023-01-23T00:57:20;22.98;;;15.85;;
33491;SDS011;20010;51.488;7.232;2023-01-23T00:59:47;23.42;;;16.58;;
33491;SDS011;20010;51.488;7.232;2023-01-23T01:02:13;22.45;;;15.90;;
33491;SDS011;20010;51.488;7.232;2023-01-23T01:04:40;23.17;;;17.45;;
33491;SDS011;20010;51.488;7.232;2023-01-23T01:07:06;23.92;;;16.27;;
33491;SDS011;20010;51.488;7.232;2023-01-23T01:09:33;23.45;;;16.17;;
33491;SDS011;20010;51.488;7.232;2023-01-23T01:11:59;24.15;;;16.20;;
33491;SDS011;20010;51.488;7.232;2023-01-23T01:14:26;22.08;;;16.45;;
33491;SDS011;20010;51.488;7.232;2023-01-23T01:16:52;25.55;;;15.88;;
33491;SDS011;20010;51.488;7.232;2023-01-23T01:19:19;23.25;;;15.98;;
33491;SDS011;20010;51.488;7.232;2023-01-23T01:21:46;24.48;;;17.55;;
33491;SDS011;20010;51.488;7.232;2023-01-23T01:24:12;23.77;;;15.95;;
33491;SDS011;20010;51.488;7.232;2023-01-23T01:26:39;23.13;;;15.38;;
33491;SDS011;20010;51.488;7.232;2023-01-23T01:29:05;23.77;;;16.50;;
33491;SDS011;20010;51.488;7.232;2023-01-23T01:31:32;23.80;;;15.80;;
33491;SDS011;20010;51.488;7.232;2023-01-23T01:33:58;25.77;;;16.33;;
33491;SDS011;20010;51.488;7.232;2023-01-23T01:36:25;22.05;;;16.23;;
33491;SDS011;20010;51.488;7.232;2023-01-23T01:38:52;23.70;;;17.13;;
33491;SDS011;20010;51.488;7.232;2023-01-23T01:41:19;22.13;;;14.98;;
33491;SDS011;20010;51.488;7.232;2023-01-23T01:43:45;21.38;;;15.43;;
33491;SDS011;20010;51.488;7.232;2023-01-23T01:46:16;22.40;;;15.25;;
33491;SDS011;20010;51.488;7.232;2023-01-23T01:48:51;24.83;;;15.13;;
33491;SDS011;20010;51.488;7.232;2023-01-23T01:51:20;24.17;;;15.52;;
33491;SDS011;20010;51.488;7.232;2023-01-23T01:54:44;23.20;;;16.48;;
33491;SDS011;20010;51.488;7.232;2023-01-23T01:56:47;21.48;;;15.40;;
33491;SDS011;20010;51.488;7.232;2023-01-23T01:59:17;23.05;;;15.70;;
33491;SDS011;20010;51.488;7.232;2023-01-23T02:01:45;24.40;;;15.00;;
33491;SDS011;20010;51.488;7.232;2023-01-23T02:04:13;21.98;;;15.05;;
33491;SDS011;20010;51.488;7.232;2023-01-23T02:06:40;23.48;;;16.35;;
33491;SDS011;20010;51.488;7.232;2023-01-23T02:09:09;22.65;;;15.18;;
33491;SDS011;20010;51.488;7.232;2023-01-23T02:11:39;24.75;;;16.50;;
33491;SDS011;20010;51.488;7.232;2023-01-23T02:14:06;23.90;;;15.75;;
33491;SDS011;20010;51.488;7.232;2023-01-23T02:16:33;23.65;;;16.55;;
33491;SDS011;20010;51.488;7.232;2023-01-23T02:19:09;24.15;;;15.98;;
33491;SDS011;20010;51.488;7.232;2023-01-23T02:21:40;24.08;;;15.80;;
33491;SDS011;20010;51.488;7.232;2023-01-23T02:24:14;26.52;;;17.50;;
33491;SDS011;20010;51.488;7.232;2023-01-23T02:26:45;25.05;;;15.90;;
33491;SDS011;20010;51.488;7.232;2023-01-23T02:29:12;24.58;;;16.08;;
33491;SDS011;20010;51.488;7.232;2023-01-23T02:31:39;24.60;;;17.25;;
33491;SDS011;20010;51.488;7.232;2023-01-23T02:34:09;26.25;;;17.60;;
33491;SDS011;20010;51.488;7.232;2023-01-23T02:36:37;29.70;;;19.40;;
33491;SDS011;20010;51.488;7.232;2023-01-23T02:39:11;27.38;;;16.83;;
33491;SDS011;20010;51.488;7.232;2023-01-23T02:41:41;29.58;;;17.63;;
33491;SDS011;20010;51.488;7.232;2023-01-23T02:44:18;27.02;;;16.77;;
33491;SDS011;20010;51.488;7.232;2023-01-23T02:46:46;25.77;;;17.02;;
33491;SDS011;20010;51.488;7.232;2023-01-23T02:49:12;26.83;;;17.63;;
33491;SDS011;20010;51.488;7.232;2023-01-23T02:51:39;23.48;;;15.68;;
33491;SDS011;20010;51.488;7.232;2023-01-23T02:54:06;30.10;;;19.05;;
33491;SDS011;20010;51.488;7.232;2023-01-23T02:56:32;27.52;;;18.92;;
33491;SDS011;20010;51.488;7.232;2023-01-23T02:58:59;26.80;;;17.50;;
33491;SDS011;20010;51.488;7.232;2023-01-23T03:01:44;25.52;;;17.70;;
33491;SDS011;20010;51.488;7.232;2023-01-23T03:04:10;28.80;;;18.63;;
33491;SDS011;20010;51.488;7.232;2023-01-23T03:06:37;30.35;;;16.98;;
33491;SDS011;20010;51.488;7.232;2023-01-23T03:09:05;28.48;;;18.70;;
33491;SDS011;20010;51.488;7.232;2023-01-23T03:11:37;26.52;;;17.45;;
33491;SDS011;20010;51.488;7.232;2023-01-23T03:14:06;24.63;;;16.77;;
33491;SDS011;20010;51.488;7.232;2023-01-23T03:16:33;32.85;;;19.67;;
33491;SDS011;20010;51.488;7.232;2023-01-23T03:19:05;25.08;;;16.88;;
33491;SDS011;20010;51.488;7.232;2023-01-23T03:21:35;27.17;;;17.75;;
33491;SDS011;20010;51.488;7.232;2023-01-23T03:24:06;29.52;;;16.60;;
33491;SDS011;20010;51.488;7.232;2023-01-23T03:26:33;26.73;;;17.15;;
33491;SDS011;20010;51.488;7.232;2023-01-23T03:29:00;28.52;;;17.33;;
33491;SDS011;20010;51.488;7.232;2023-01-23T03:31:45;30.88;;;18.77;;
33491;SDS011;20010;51.488;7.232;2023-01-23T03:34:11;26.73;;;17.13;;
33491;SDS011;20010;51.488;7.232;2023-01-23T03:36:38;31.85;;;19.88;;
33491;SDS011;20010;51.488;7.232;2023-01-23T03:39:06;28.65;;;19.63;;
33491;SDS011;20010;51.488;7.232;2023-01-23T03:41:52;29.77;;;18.83;;
33491;SDS011;20010;51.488;7.232;2023-01-23T03:44:19;33.15;;;19.00;;
33491;SDS011;20010;51.488;7.232;2023-01-23T03:46:47;30.25;;;18.50;;
33491;SDS011;20010;51.488;7.232;2023-01-23T03:49:14;30.20;;;19.85;;
33491;SDS011;20010;51.488;7.232;2023-01-23T03:51:41;27.27;;;17.60;;
33491;SDS011;20010;51.488;7.232;2023-01-23T03:54:08;29.60;;;19.33;;
33491;SDS011;20010;51.488;7.232;2023-01-23T03:56:34;31.23;;;19.27;;
33491;SDS011;20010;51.488;7.232;2023-01-23T03:59:01;31.00;;;19.25;;
33491;SDS011;20010;51.488;7.232;2023-01-23T04:01:28;26.67;;;18.15;;
33491;SDS011;20010;51.488;7.232;2023-01-23T04:03:54;27.60;;;17.33;;
33491;SDS011;20010;51.488;7.232;2023-01-23T04:06:21;31.42;;;19.50;;
33491;SDS011;20010;51.488;7.232;2023-01-23T04:08:47;27.42;;;18.00;;
33491;SDS011;20010;51.488;7.232;2023-01-23T04:11:14;27.65;;;18.30;;
33491;SDS011;20010;51.488;7.232;2023-01-23T04:13:40;29.45;;;18.17;;
33491;SDS011;20010;51.488;7.232;2023-01-23T04:16:07;28.10;;;17.90;;
33491;SDS011;20010;51.488;7.232;2023-01-23T04:18:33;32.63;;;18.23;;
33491;SDS011;20010;51.488;7.232;2023-01-23T04:21:00;29.60;;;18.90;;
33491;SDS011;20010;51.488;7.232;2023-01-23T04:23:26;24.48;;;17.52;;
33491;SDS011;20010;51.488;7.232;2023-01-23T04:25:53;29.67;;;18.13;;
33491;SDS011;20010;51.488;7.232;2023-01-23T04:28:25;27.95;;;16.95;;
33491;SDS011;20010;51.488;7.232;2023-01-23T04:30:55;28.77;;;19.63;;
33491;SDS011;20010;51.488;7.232;2023-01-23T04:33:22;27.25;;;17.50;;
33491;SDS011;20010;51.488;7.232;2023-01-23T04:35:52;26.13;;;17.50;;
33491;SDS011;20010;51.488;7.232;2023-01-23T04:38:21;26.10;;;17.90;;
33491;SDS011;20010;51.488;7.232;2023-01-23T04:40:51;25.98;;;17.00;;
33491;SDS011;20010;51.488;7.232;2023-01-23T04:43:18;28.98;;;18.00;;
33491;SDS011;20010;51.488;7.232;2023-01-23T04:45:44;27.63;;;17.55;;
33491;SDS011;20010;51.488;7.232;2023-01-23T04:48:12;32.67;;;20.65;;
33491;SDS011;20010;51.488;7.232;2023-01-23T04:50:38;28.60;;;17.83;;
33491;SDS011;20010;51.488;7.232;2023-01-23T04:53:05;25.48;;;16.50;;
33491;SDS011;20010;51.488;7.232;2023-01-23T04:55:32;27.73;;;17.60;;
33491;SDS011;20010;51.488;7.232;2023-01-23T04:57:59;21.67;;;15.15;;
33491;SDS011;20010;51.488;7.232;2023-01-23T05:00:26;26.38;;;17.83;;
33491;SDS011;20010;51.488;7.232;2023-01-23T05:02:54;26.60;;;17.85;;
33491;SDS011;20010;51.488;7.232;2023-01-23T05:05:21;28.45;;;18.00;;
33491;SDS011;20010;51.488;7.232;2023-01-23T05:07:48;26.45;;;17.00;;
33491;SDS011;20010;51.488;7.232;2023-01-23T05:10:16;27.20;;;18.13;;
33491;SDS011;20010;51.488;7.232;2023-01-23T05:12:42;31.20;;;19.05;;
33491;SDS011;20010;51.488;7.232;2023-01-23T05:15:10;25.52;;;17.27;;
33491;SDS011;20010;51.488;7.232;2023-01-23T05:17:37;26.08;;;17.27;;
33491;SDS011;20010;51.488;7.232;2023-01-23T05:20:04;27.50;;;18.08;;
33491;SDS011;20010;51.488;7.232;2023-01-23T05:22:31;23.35;;;15.65;;
33491;SDS011;20010;51.488;7.232;2023-01-23T05:24:58;26.90;;;17.45;;
33491;SDS011;20010;51.488;7.232;2023-01-23T05:27:25;29.05;;;18.08;;
33491;SDS011;20010;51.488;7.232;2023-01-23T05:29:52;25.40;;;16.98;;
33491;SDS011;20010;51.488;7.232;2023-01-23T05:32:18;27.60;;;17.75;;
33491;SDS011;20010;51.488;7.232;2023-01-23T05:34:44;26.20;;;16.83;;
33491;SDS011;20010;51.488;7.232;2023-01-23T05:37:11;28.15;;;17.85;;
33491;SDS011;20010;51.488;7.232;2023-01-23T05:39:37;28.35;;;17.23;;
33491;SDS011;20010;51.488;7.232;2023-01-23T05:42:04;25.70;;;17.25;;
33491;SDS011;20010;51.488;7.232;2023-01-23T05:44:30;29.83;;;18.83;;
33491;SDS011;20010;51.488;7.232;2023-01-23T05:46:57;27.17;;;18.15;;
33491;SDS011;20010;51.488;7.232;2023-01-23T05:49:23;27.60;;;18.42;;
33491;SDS011;20010;51.488;7.232;2023-01-23T05:51:50;33.70;;;22.40;;
33491;SDS011;20010;51.488;7.232;2023-01-23T05:54:16;28.25;;;17.95;;
33491;SDS011;20010;51.488;7.232;2023-01-23T05:56:43;28.30;;;18.42;;
33491;SDS011;20010;51.488;7.232;2023-01-23T05:59:09;27.60;;;17.50;;
33491;SDS011;20010;51.488;7.232;2023-01-23T06:01:36;30.20;;;19.65;;
33491;SDS011;20010;51.488;7.232;2023-01-23T06:04:02;29.38;;;18.95;;
33491;SDS011;20010;51.488;7.232;2023-01-23T06:06:29;26.60;;;17.85;;
33491;SDS011;20010;51.488;7.232;2023-01-23T06:08:57;27.40;;;18.02;;
33491;SDS011;20010;51.488;7.232;2023-01-23T06:11:24;28.25;;;19.17;;
33491;SDS011;20010;51.488;7.232;2023-01-23T06:13:50;28.92;;;18.08;;
33491;SDS011;20010;51.488;7.232;2023-01-23T06:16:17;27.45;;;17.98;;
33491;SDS011;20010;51.488;7.232;2023-01-23T06:18:44;27.35;;;17.13;;
33491;SDS011;20010;51.488;7.232;2023-01-23T06:21:10;27.20;;;17.02;;
33491;SDS011;20010;51.488;7.232;2023-01-23T06:23:36;27.38;;;18.00;;
33491;SDS011;20010;51.488;7.232;2023-01-23T06:26:03;28.23;;;18.30;;
33491;SDS011;20010;51.488;7.232;2023-01-23T06:28:30;31.90;;;20.35;;
33491;SDS011;20010;51.488;7.232;2023-01-23T06:31:00;33.90;;;18.73;;
33491;SDS011;20010;51.488;7.232;2023-01-23T06:35:57;28.70;;;18.35;;
33491;SDS011;20010;51.488;7.232;2023-01-23T06:40:51;29.38;;;18.27;;
33491;SDS011;20010;51.488;7.232;2023-01-23T06:43:19;37.08;;;18.73;;
33491;SDS011;20010;51.488;7.232;2023-01-23T06:45:46;32.58;;;19.90;;
33491;SDS011;20010;51.488;7.232;2023-01-23T06:48:13;34.25;;;20.38;;
33491;SDS011;20010;51.488;7.232;2023-01-23T06:50:40;37.90;;;22.75;;
33491;SDS011;20010;51.488;7.232;2023-01-23T06:53:07;35.17;;;21.15;;
33491;SDS011;20010;51.488;7.232;2023-01-23T06:55:34;27.30;;;18.77;;
33491;SDS011;20010;51.488;7.232;2023-01-23T06:58:01;33.85;;;20.20;;
33491;SDS011;20010;51.488;7.232;2023-01-23T07:00:27;34.33;;;20.33;;
33491;SDS011;20010;51.488;7.232;2023-01-23T07:02:54;30.83;;;18.85;;
33491;SDS011;20010;51.488;7.232;2023-01-23T07:05:24;33.78;;;18.63;;
33491;SDS011;20010;51.488;7.232;2023-01-23T07:07:50;30.13;;;18.75;;
33491;SDS011;20010;51.488;7.232;2023-01-23T07:10:17;33.80;;;21.00;;
33491;SDS011;20010;51.488;7.232;2023-01-23T07:12:44;30.55;;;20.13;;
33491;SDS011;20010;51.488;7.232;2023-01-23T07:15:10;32.65;;;20.00;;
33491;SDS011;20010;51.488;7.232;2023-01-23T07:17:37;30.25;;;20.40;;
33491;SDS011;20010;51.488;7.232;2023-01-23T07:20:04;30.95;;;19.15;;
33491;SDS011;20010;51.488;7.232;2023-01-23T07:22:30;29.52;;;18.58;;
33491;SDS011;20010;51.488;7.232;2023-01-23T07:24:57;30.77;;;17.58;;
33491;SDS011;20010;51.488;7.232;2023-01-23T07:27:23;28.30;;;17.33;;
33491;SDS011;20010;51.488;7.232;2023-01-23T07:29:50;22.48;;;16.30;;
33491;SDS011;20010;51.488;7.232;2023-01-23T07:32:17;28.50;;;17.42;;
33491;SDS011;20010;51.488;7.232;2023-01-23T07:34:43;28.35;;;18.45;;
33491;SDS011;20010;51.488;7.232;2023-01-23T07:37:09;30.98;;;17.95;;
33491;SDS011;20010;51.488;7.232;2023-01-23T07:39:36;30.65;;;18.77;;
33491;SDS011;20010;51.488;7.232;2023-01-23T07:42:02;29.70;;;18.08;;
33491;SDS011;20010;51.488;7.232;2023-01-23T07:44:29;30.17;;;18.10;;
33491;SDS011;20010;51.488;7.232;2023-01-23T07:46:56;29.30;;;16.88;;
33491;SDS011;20010;51.488;7.232;2023-01-23T07:49:22;28.65;;;18.08;;
33491;SDS011;20010;51.488;7.232;2023-01-23T07:51:49;27.02;;;17.98;;
33491;SDS011;20010;51.488;7.232;2023-01-23T07:54:15;26.13;;;16.85;;
33491;SDS011;20010;51.488;7.232;2023-01-23T07:56:41;30.33;;;17.10;;
33491;SDS011;20010;51.488;7.232;2023-01-23T07:59:09;28.48;;;17.50;;
33491;SDS011;20010;51.488;7.232;2023-01-23T08:01:37;29.88;;;17.70;;
33491;SDS011;20010;51.488;7.232;2023-01-23T08:04:04;25.92;;;15.85;;
33491;SDS011;20010;51.488;7.232;2023-01-23T08:06:30;30.20;;;17.73;;
33491;SDS011;20010;51.488;7.232;2023-01-23T08:08:57;28.08;;;16.35;;
33491;SDS011;20010;51.488;7.232;2023-01-23T08:11:23;21.50;;;14.57;;
33491;SDS011;20010;51.488;7.232;2023-01-23T08:13:51;28.77;;;18.05;;
33491;SDS011;20010;51.488;7.232;2023-01-23T08:16:18;21.08;;;15.70;;
33491;SDS011;20010;51.488;7.232;2023-01-23T08:18:44;28.08;;;18.98;;
33491;SDS011;20010;51.488;7.232;2023-01-23T08:21:11;29.77;;;17.58;;
33491;SDS011;20010;51.488;7.232;2023-01-23T08:23:38;27.05;;;17.25;;
33491;SDS011;20010;51.488;7.232;2023-01-23T08:26:06;25.67;;;17.30;;
33491;SDS011;20010;51.488;7.232;2023-01-23T08:28:34;28.52;;;18.17;;
33491;SDS011;20010;51.488;7.232;2023-01-23T08:31:02;27.58;;;17.73;;
33491;SDS011;20010;51.488;7.232;2023-01-23T08:33:32;30.17;;;18.45;;
33491;SDS011;20010;51.488;7.232;2023-01-23T08:35:59;25.27;;;16.00;;
33491;SDS011;20010;51.488;7.232;2023-01-23T08:38:26;23.70;;;15.52;;
33491;SDS011;20010;51.488;7.232;2023-01-23T08:40:53;23.88;;;14.95;;
33491;SDS011;20010;51.488;7.232;2023-01-23T08:43:23;25.13;;;15.73;;
33491;SDS011;20010;51.488;7.232;2023-01-23T08:45:50;27.67;;;15.48;;
33491;SDS011;20010;51.488;7.232;2023-01-23T08:48:18;22.77;;;14.90;;
33491;SDS011;20010;51.488;7.232;2023-01-23T08:50:45;22.67;;;14.75;;
33491;SDS011;20010;51.488;7.232;2023-01-23T08:53:12;21.88;;;14.93;;
33491;SDS011;20010;51.488;7.232;2023-01-23T08:55:39;22.20;;;14.65;;
33491;SDS011;20010;51.488;7.232;2023-01-23T08:58:06;24.02;;;14.65;;
33491;SDS011;20010;51.488;7.232;2023-01-23T09:00:34;21.13;;;13.50;;
33491;SDS011;20010;51.488;7.232;2023-01-23T09:03:01;22.77;;;14.40;;
33491;SDS011;20010;51.488;7.232;2023-01-23T09:05:28;20.00;;;12.15;;
33491;SDS011;20010;51.488;7.232;2023-01-23T09:07:55;20.33;;;14.07;;
33491;SDS011;20010;51.488;7.232;2023-01-23T09:10:24;18.90;;;12.95;;
33491;SDS011;20010;51.488;7.232;2023-01-23T09:12:51;19.80;;;13.10;;
33491;SDS011;20010;51.488;7.232;2023-01-23T09:15:19;17.83;;;12.35;;
33491;SDS011;20010;51.488;7.232;2023-01-23T09:17:46;20.23;;;12.05;;
33491;SDS011;20010;51.488;7.232;2023-01-23T09:20:13;19.40;;;13.15;;
33491;SDS011;20010;51.488;7.232;2023-01-23T09:22:40;24.02;;;14.70;;
33491;SDS011;20010;51.488;7.232;2023-01-23T09:25:07;20.90;;;13.65;;
33491;SDS011;20010;51.488;7.232;2023-01-23T09:27:34;19.00;;;13.25;;
33491;SDS011;20010;51.488;7.232;2023-01-23T09:30:00;19.13;;;12.88;;
33491;SDS011;20010;51.488;7.232;2023-01-23T09:32:27;18.15;;;11.90;;
33491;SDS011;20010;51.488;7.232;2023-01-23T09:34:53;18.83;;;12.68;;
33491;SDS011;20010;51.488;7.232;2023-01-23T09:37:20;18.60;;;12.95;;
33491;SDS011;20010;51.488;7.232;2023-01-23T09:39:46;19.10;;;12.85;;
33491;SDS011;20010;51.488;7.232;2023-01-23T09:42:14;19.45;;;12.70;;
33491;SDS011;20010;51.488;7.232;2023-01-23T09:44:44;16.03;;;11.67;;
33491;SDS011;20010;51.488;7.232;2023-01-23T09:49:58;17.77;;;12.75;;
33491;SDS011;20010;51.488;7.232;2023-01-23T09:52:29;16.45;;;11.50;;
33491;SDS011;20010;51.488;7.232;2023-01-23T09:55:23;18.52;;;11.48;;
33491;SDS011;20010;51.488;7.232;2023-01-23T09:57:57;16.63;;;11.57;;
33491;SDS011;20010;51.488;7.232;2023-01-23T10:00:30;17.92;;;12.13;;
33491;SDS011;20010;51.488;7.232;2023-01-23T10:03:01;17.45;;;12.07;;
33491;SDS011;20010;51.488;7.232;2023-01-23T10:24:52;15.73;;;10.57;;
33491;SDS011;20010;51.488;7.232;2023-01-23T10:27:22;15.55;;;10.68;;
33491;SDS011;20010;51.488;7.232;2023-01-23T10:29:55;16.83;;;11.15;;
33491;SDS011;20010;51.488;7.232;2023-01-23T10:32:24;15.32;;;10.98;;
33491;SDS011;20010;51.488;7.232;2023-01-23T10:42:42;15.88;;;10.70;;
33491;SDS011;20010;51.488;7.232;2023-01-23T10:45:13;13.25;;;9.95;;
33491;SDS011;20010;51.488;7.232;2023-01-23T10:47:45;16.88;;;11.90;;
33491;SDS011;20010;51.488;7.232;2023-01-23T10:50:36;13.95;;;9.85;;
33491;SDS011;20010;51.488;7.232;2023-01-23T10:53:06;11.25;;;8.98;;
33491;SDS011;20010;51.488;7.232;2023-01-23T10:55:33;12.93;;;9.45;;
33491;SDS011;20010;51.488;7.232;2023-01-23T10:58:02;12.50;;;9.07;;
33491;SDS011;20010;51.488;7.232;2023-01-23T11:00:36;10.75;;;8.98;;
33491;SDS011;20010;51.488;7.232;2023-01-23T11:05:51;14.68;;;10.82;;
33491;SDS011;20010;51.488;7.232;2023-01-23T11:13:39;13.32;;;10.40;;
33491;SDS011;20010;51.488;7.232;2023-01-23T11:16:07;14.15;;;9.77;;
33491;SDS011;20010;51.488;7.232;2023-01-23T11:18:39;12.95;;;9.18;;
33491;SDS011;20010;51.488;7.232;2023-01-23T11:21:18;12.35;;;8.98;;
33491;SDS011;20010;51.488;7.232;2023-01-23T11:26:31;13.82;;;9.85;;
33491;SDS011;20010;51.488;7.232;2023-01-23T11:28:59;11.98;;;8.32;;
33491;SDS011;20010;51.488;7.232;2023-01-23T11:31:25;13.73;;;10.27;;
33491;SDS011;20010;51.488;7.232;2023-01-23T11:42:01;17.33;;;12.30;;
33491;SDS011;20010;51.488;7.232;2023-01-23T11:44:28;13.27;;;9.68;;
33491;SDS011;20010;51.488;7.232;2023-01-23T11:47:34;15.00;;;10.68;;
33491;SDS011;20010;51.488;7.232;2023-01-23T12:03:06;17.20;;;12.38;;
33491;SDS011;20010;51.488;7.232;2023-01-23T12:11:30;17.15;;;12.25;;
33491;SDS011;20010;51.488;7.232;2023-01-23T12:19:41;16.02;;;11.05;;
33491;SDS011;20010;51.488;7.232;2023-01-23T12:22:22;15.50;;;10.73;;
33491;SDS011;20010;51.488;7.232;2023-01-23T12:25:02;18.10;;;11.45;;
33491;SDS011;20010;51.488;7.232;2023-01-23T12:27:41;13.80;;;10.25;;
33491;SDS011;20010;51.488;7.232;2023-01-23T12:42:26;14.30;;;10.75;;
33491;SDS011;20010;51.488;7.232;2023-01-23T12:45:12;18.52;;;10.73;;
33491;SDS011;20010;51.488;7.232;2023-01-23T12:50:46;12.02;;;9.60;;
33491;SDS011;20010;51.488;7.232;2023-01-23T12:53:19;12.13;;;9.73;;
33491;SDS011;20010;51.488;7.232;2023-01-23T12:58:22;11.27;;;9.30;;
33491;SDS011;20010;51.488;7.232;2023-01-23T13:08:54;13.52;;;10.27;;
33491;SDS011;20010;51.488;7.232;2023-01-23T13:11:45;11.90;;;10.17;;
33491;SDS011;20010;51.488;7.232;2023-01-23T13:14:22;15.90;;;11.07;;
33491;SDS011;20010;51.488;7.232;2023-01-23T13:17:28;12.20;;;10.57;;
33491;SDS011;20010;51.488;7.232;2023-01-23T13:20:22;12.77;;;10.30;;
33491;SDS011;20010;51.488;7.232;2023-01-23T13:28:58;12.20;;;9.88;;
33491;SDS011;20010;51.488;7.232;2023-01-23T13:31:43;16.70;;;12.82;;
33491;SDS011;20010;51.488;7.232;2023-01-23T13:36:45;14.65;;;11.00;;
33491;SDS011;20010;51.488;7.232;2023-01-23T13:41:45;14.43;;;10.00;;
33491;SDS011;20010;51.488;7.232;2023-01-23T13:50:19;13.80;;;10.37;;
33491;SDS011;20010;51.488;7.232;2023-01-23T13:53:13;16.58;;;11.70;;
33491;SDS011;20010;51.488;7.232;2023-01-23T13:56:18;12.95;;;9.25;;
33491;SDS011;20010;51.488;7.232;2023-01-23T13:59:28;15.73;;;11.35;;
33491;SDS011;20010;51.488;7.232;2023-01-23T14:05:18;14.63;;;10.55;;
33491;SDS011;20010;51.488;7.232;2023-01-23T14:08:03;15.68;;;10.55;;
33491;SDS011;20010;51.488;7.232;2023-01-23T14:10:45;16.30;;;11.40;;
33491;SDS011;20010;51.488;7.232;2023-01-23T14:13:28;18.42;;;14.40;;
33491;SDS011;20010;51.488;7.232;2023-01-23T14:16:10;13.75;;;10.95;;
33491;SDS011;20010;51.488;7.232;2023-01-23T14:21:34;12.48;;;9.40;;
33491;SDS011;20010;51.488;7.232;2023-01-23T14:24:20;15.75;;;10.98;;
33491;SDS011;20010;51.488;7.232;2023-01-23T14:26:49;11.07;;;9.00;;
33491;SDS011;20010;51.488;7.232;2023-01-23T14:29:21;16.45;;;11.82;;
33491;SDS011;20010;51.488;7.232;2023-01-23T14:31:49;12.02;;;8.70;;
33491;SDS011;20010;51.488;7.232;2023-01-23T14:34:20;17.15;;;10.52;;
33491;SDS011;20010;51.488;7.232;2023-01-23T14:36:49;14.18;;;10.48;;
33491;SDS011;20010;51.488;7.232;2023-01-23T14:39:19;12.53;;;9.40;;
33491;SDS011;20010;51.488;7.232;2023-01-23T14:41:47;13.55;;;9.98;;
33491;SDS011;20010;51.488;7.232;2023-01-23T14:44:18;11.73;;;8.95;;
33491;SDS011;20010;51.488;7.232;2023-01-23T14:46:51;13.52;;;11.07;;
33491;SDS011;20010;51.488;7.232;2023-01-23T14:49:25;14.93;;;10.15;;
33491;SDS011;20010;51.488;7.232;2023-01-23T14:51:55;16.15;;;11.15;;
33491;SDS011;20010;51.488;7.232;2023-01-23T14:54:24;14.25;;;10.07;;
33491;SDS011;20010;51.488;7.232;2023-01-23T14:56:57;13.68;;;9.68;;
33491;SDS011;20010;51.488;7.232;2023-01-23T14:59:32;12.55;;;9.38;;
33491;SDS011;20010;51.488;7.232;2023-01-23T15:02:23;13.93;;;10.95;;
33491;SDS011;20010;51.488;7.232;2023-01-23T15:10:35;17.38;;;11.88;;
33491;SDS011;20010;51.488;7.232;2023-01-23T15:13:19;17.40;;;12.13;;
33491;SDS011;20010;51.488;7.232;2023-01-23T15:15:50;13.85;;;9.73;;
33491;SDS011;20010;51.488;7.232;2023-01-23T15:18:23;14.40;;;9.60;;
33491;SDS011;20010;51.488;7.232;2023-01-23T15:20:53;13.05;;;9.85;;
33491;SDS011;20010;51.488;7.232;2023-01-23T15:26:06;15.73;;;10.50;;
33491;SDS011;20010;51.488;7.232;2023-01-23T15:28:40;16.42;;;11.00;;
33491;SDS011;20010;51.488;7.232;2023-01-23T15:31:25;13.02;;;9.63;;
33491;SDS011;20010;51.488;7.232;2023-01-23T15:42:21;15.38;;;10.93;;
33491;SDS011;20010;51.488;7.232;2023-01-23T15:44:51;15.55;;;10.93;;
33491;SDS011;20010;51.488;7.232;2023-01-23T15:47:18;14.38;;;11.02;;
33491;SDS011;20010;51.488;7.232;2023-01-23T15:49:44;13.10;;;10.32;;
33491;SDS011;20010;51.488;7.232;2023-01-23T15:54:52;22.00;;;13.43;;
33491;SDS011;20010;51.488;7.232;2023-01-23T15:57:20;14.30;;;10.75;;
33491;SDS011;20010;51.488;7.232;2023-01-23T15:59:47;15.45;;;11.32;;
33491;SDS011;20010;51.488;7.232;2023-01-23T16:02:20;16.02;;;10.35;;
33491;SDS011;20010;51.488;7.232;2023-01-23T16:04:58;14.32;;;10.68;;
33491;SDS011;20010;51.488;7.232;2023-01-23T16:07:29;13.55;;;10.02;;
33491;SDS011;20010;51.488;7.232;2023-01-23T16:09:59;13.25;;;9.52;;
33491;SDS011;20010;51.488;7.232;2023-01-23T16:12:27;13.25;;;10.23;;
33491;SDS011;20010;51.488;7.232;2023-01-23T16:14:55;13.55;;;10.10;;
33491;SDS011;20010;51.488;7.232;2023-01-23T16:17:22;13.27;;;10.45;;
33491;SDS011;20010;51.488;7.232;2023-01-23T16:19:48;17.00;;;10.68;;
33491;SDS011;20010;51.488;7.232;2023-01-23T16:22:25;16.05;;;11.98;;
33491;SDS011;20010;51.488;7.232;2023-01-23T16:24:54;15.32;;;12.13;;
33491;SDS011;20010;51.488;7.232;2023-01-23T16:27:22;14.80;;;10.93;;
33491;SDS011;20010;51.488;7.232;2023-01-23T16:29:53;19.08;;;12.00;;
33491;SDS011;20010;51.488;7.232;2023-01-23T16:32:20;15.20;;;11.40;;
33491;SDS011;20010;51.488;7.232;2023-01-23T16:34:47;14.20;;;10.80;;
33491;SDS011;20010;51.488;7.232;2023-01-23T16:37:14;15.30;;;11.30;;
33491;SDS011;20010;51.488;7.232;2023-01-23T16:39:42;15.38;;;11.25;;
33491;SDS011;20010;51.488;7.232;2023-01-23T16:42:21;12.45;;;10.02;;
33491;SDS011;20010;51.488;7.232;2023-01-23T16:44:50;15.38;;;10.68;;
33491;SDS011;20010;51.488;7.232;2023-01-23T16:47:16;12.32;;;9.32;;
33491;SDS011;20010;51.488;7.232;2023-01-23T16:49:43;14.98;;;11.60;;
33491;SDS011;20010;51.488;7.232;2023-01-23T16:52:19;13.07;;;9.82;;
33491;SDS011;20010;51.488;7.232;2023-01-23T16:54:48;14.85;;;10.55;;
33491;SDS011;20010;51.488;7.232;2023-01-23T16:57:18;14.05;;;10.68;;
33491;SDS011;20010;51.488;7.232;2023-01-23T16:59:45;13.52;;;10.98;;
33491;SDS011;20010;51.488;7.232;2023-01-23T17:04:47;14.50;;;10.95;;
33491;SDS011;20010;51.488;7.232;2023-01-23T17:07:14;13.73;;;11.00;;